Time,TemperatureF,DewpointF,PressureIn,WindDirection,WindDirectionDegrees,WindSpeedMPH,WindSpeedGustMPH,Humidity,HourlyPrecipIn,Conditions,Clouds,dailyrainin,SoftwareType,DateUTC
2013-03-22 00:02:00,39.2,37.1,29.70,South,175,0.0,0.0,92,0.00,,,0.00,Wunderground v.1.15,2013-03-22 07:02:00,
2013-03-22 00:03:00,40.6,38.2,29.70,South,175,0.0,0.0,91,0.00,,,0.00,Wunderground v.1.15,2013-03-22 07:03:00,
2013-03-22 00:09:00,40.9,38.8,29.70,South,175,0.0,0.0,92,0.00,,,0.00,Wunderground v.1.15,2013-03-22 07:09:00,
2013-03-22 00:15:00,40.8,38.4,29.70,South,175,0.0,0.0,91,0.00,,,0.00,Wunderground v.1.15,2013-03-22 07:15:00,
2013-03-22 00:27:00,40.1,38.0,29.70,South,175,0.0,0.0,92,0.00,,,0.00,Wunderground v.1.15,2013-03-22 07:27:00,
2013-03-22 00:33:00,39.9,37.8,29.70,South,175,0.0,1.0,92,0.00,,,0.00,Wunderground v.1.15,2013-03-22 07:33:00,
2013-03-22 00:39:00,39.5,37.4,29.70,South,175,0.0,0.0,92,0.00,,,0.00,Wunderground v.1.15,2013-03-22 07:39:00,
2013-03-22 00:45:00,39.1,37.0,29.70,South,175,0.0,0.0,92,0.00,,,0.00,Wunderground v.1.15,2013-03-22 07:45:00,
2013-03-22 00:53:00,39.2,37.1,29.70,South,175,0.0,0.0,92,0.00,,,0.00,Wunderground v.1.15,2013-03-22 07:53:00,
2013-03-22 00:59:00,39.3,37.2,29.70,South,175,0.0,0.0,92,0.00,,,0.00,Wunderground v.1.15,2013-03-22 07:59:00,
2013-03-22 01:05:00,39.5,37.4,29.70,South,175,0.0,0.0,92,0.00,,,0.00,Wunderground v.1.15,2013-03-22 08:05:00,
2013-03-22 01:11:00,39.2,37.1,29.70,South,175,0.0,0.0,92,0.00,,,0.00,Wunderground v.1.15,2013-03-22 08:11:00,
2013-03-22 01:17:00,38.9,36.8,29.71,South,175,0.0,0.0,92,0.00,,,0.00,Wunderground v.1.15,2013-03-22 08:17:00,
2013-03-22 01:23:00,38.8,36.7,29.71,South,175,0.0,0.0,92,0.00,,,0.00,Wunderground v.1.15,2013-03-22 08:23:00,
2013-03-22 01:29:00,38.5,36.4,29.71,South,175,0.0,0.0,92,0.00,,,0.00,Wunderground v.1.15,2013-03-22 08:29:00,
2013-03-22 01:35:00,38.0,35.9,29.71,South,175,0.0,0.0,92,0.00,,,0.00,Wunderground v.1.15,2013-03-22 08:35:00,
2013-03-22 01:41:00,38.3,36.2,29.71,South,175,0.0,1.0,92,0.00,,,0.00,Wunderground v.1.15,2013-03-22 08:41:00,
2013-03-22 01:47:00,37.9,35.8,29.71,South,175,0.0,1.0,92,0.00,,,0.00,Wunderground v.1.15,2013-03-22 08:47:00,
2013-03-22 01:53:00,37.9,36.1,29.71,South,175,0.0,0.0,93,0.00,,,0.00,Wunderground v.1.15,2013-03-22 08:53:00,
2013-03-22 01:59:00,37.9,36.1,29.71,South,175,0.0,0.0,93,0.00,,,0.00,Wunderground v.1.15,2013-03-22 08:59:00,
2013-03-22 02:05:00,37.8,35.7,29.71,South,175,0.0,0.0,92,0.00,,,0.00,Wunderground v.1.15,2013-03-22 09:05:00,
2013-03-22 02:11:00,37.5,35.4,29.71,South,175,0.0,0.0,92,0.00,,,0.00,Wunderground v.1.15,2013-03-22 09:11:00,
2013-03-22 02:17:00,37.0,34.9,29.71,South,175,0.0,0.0,92,0.00,,,0.00,Wunderground v.1.15,2013-03-22 09:17:00,
2013-03-22 02:23:00,36.9,35.1,29.71,South,175,0.0,0.0,93,0.00,,,0.00,Wunderground v.1.15,2013-03-22 09:23:00,
2013-03-22 02:29:00,36.6,34.5,29.71,South,175,0.0,0.0,92,0.00,,,0.00,Wunderground v.1.15,2013-03-22 09:29:00,
2013-03-22 02:35:00,36.3,34.5,29.71,South,175,0.0,0.0,93,0.00,,,0.00,Wunderground v.1.15,2013-03-22 09:35:00,
2013-03-22 02:41:00,36.5,34.7,29.71,South,175,0.0,0.0,93,0.00,,,0.00,Wunderground v.1.15,2013-03-22 09:41:00,
2013-03-22 02:47:00,36.6,34.8,29.71,South,175,0.0,0.0,93,0.00,,,0.00,Wunderground v.1.15,2013-03-22 09:47:00,
2013-03-22 02:53:00,36.6,34.8,29.71,South,175,0.0,0.0,93,0.00,,,0.00,Wunderground v.1.15,2013-03-22 09:53:00,
2013-03-22 02:59:00,36.5,34.7,29.72,South,175,0.0,0.0,93,0.00,,,0.00,Wunderground v.1.15,2013-03-22 09:59:00,
2013-03-22 03:05:00,36.5,34.9,29.71,South,175,0.0,0.0,94,0.00,,,0.00,Wunderground v.1.15,2013-03-22 10:05:00,
2013-03-22 03:11:00,37.2,35.9,29.71,South,175,0.0,0.0,95,0.00,,,0.00,Wunderground v.1.15,2013-03-22 10:11:00,
2013-03-22 03:17:00,37.8,36.2,29.71,South,175,0.0,0.0,94,0.00,,,0.00,Wunderground v.1.15,2013-03-22 10:17:00,
2013-03-22 03:23:00,37.9,36.3,29.71,South,175,0.0,0.0,94,0.00,,,0.00,Wunderground v.1.15,2013-03-22 10:23:00,
2013-03-22 03:29:00,37.9,36.3,29.71,South,175,0.0,0.0,94,0.00,,,0.00,Wunderground v.1.15,2013-03-22 10:29:00,
2013-03-22 03:35:00,37.6,35.8,29.71,South,175,0.0,0.0,93,0.00,,,0.00,Wunderground v.1.15,2013-03-22 10:35:00,
2013-03-22 03:41:00,37.5,35.7,29.71,South,175,0.0,0.0,93,0.00,,,0.00,Wunderground v.1.15,2013-03-22 10:41:00,
2013-03-22 03:47:00,37.5,35.7,29.71,South,175,0.0,0.0,93,0.00,,,0.00,Wunderground v.1.15,2013-03-22 10:47:00,
2013-03-22 03:53:00,37.3,35.5,29.71,South,175,0.0,0.0,93,0.00,,,0.00,Wunderground v.1.15,2013-03-22 10:53:00,
2013-03-22 03:59:00,37.0,35.2,29.71,South,175,0.0,0.0,93,0.00,,,0.00,Wunderground v.1.15,2013-03-22 10:59:00,
2013-03-22 04:05:00,36.8,35.0,29.71,South,175,1.0,1.0,93,0.00,,,0.00,Wunderground v.1.15,2013-03-22 11:05:00,
2013-03-22 04:11:00,36.5,34.7,29.71,South,175,0.0,1.0,93,0.00,,,0.00,Wunderground v.1.15,2013-03-22 11:11:00,
2013-03-22 04:17:00,36.3,34.5,29.71,South,175,0.0,1.0,93,0.00,,,0.00,Wunderground v.1.15,2013-03-22 11:17:00,
2013-03-22 04:23:00,36.2,34.4,29.70,South,175,0.0,0.0,93,0.00,,,0.00,Wunderground v.1.15,2013-03-22 11:23:00,
2013-03-22 04:29:00,36.3,34.5,29.70,South,175,0.0,0.0,93,0.00,,,0.00,Wunderground v.1.15,2013-03-22 11:29:00,
2013-03-22 04:35:00,35.9,34.1,29.70,South,175,0.0,0.0,93,0.00,,,0.00,Wunderground v.1.15,2013-03-22 11:35:00,
2013-03-22 04:41:00,35.9,34.1,29.70,South,175,0.0,0.0,93,0.00,,,0.00,Wunderground v.1.15,2013-03-22 11:41:00,
2013-03-22 04:47:00,35.8,34.0,29.70,South,175,0.0,0.0,93,0.00,,,0.00,Wunderground v.1.15,2013-03-22 11:47:00,
2013-03-22 04:53:00,35.8,34.0,29.70,South,175,0.0,0.0,93,0.00,,,0.00,Wunderground v.1.15,2013-03-22 11:53:00,
2013-03-22 04:59:00,35.6,33.8,29.70,South,175,0.0,0.0,93,0.00,,,0.00,Wunderground v.1.15,2013-03-22 11:59:00,
2013-03-22 05:05:00,35.6,33.8,29.70,South,175,0.0,0.0,93,0.00,,,0.00,Wunderground v.1.15,2013-03-22 12:05:00,
2013-03-22 05:11:00,35.3,33.5,29.70,South,175,0.0,0.0,93,0.00,,,0.00,Wunderground v.1.15,2013-03-22 12:11:00,
2013-03-22 05:17:00,35.2,33.4,29.70,SE,142,0.0,1.0,93,0.00,,,0.00,Wunderground v.1.15,2013-03-22 12:17:00,
2013-03-22 05:23:00,35.2,33.6,29.70,SE,142,0.0,0.0,94,0.00,,,0.00,Wunderground v.1.15,2013-03-22 12:23:00,
2013-03-22 05:29:00,35.3,33.7,29.70,SE,142,0.0,0.0,94,0.00,,,0.00,Wunderground v.1.15,2013-03-22 12:29:00,
2013-03-22 05:35:00,35.0,33.2,29.70,SE,143,0.0,1.0,93,0.00,,,0.00,Wunderground v.1.15,2013-03-22 12:35:00,
2013-03-22 05:41:00,34.7,32.9,29.70,SE,139,0.0,0.0,93,0.00,,,0.00,Wunderground v.1.15,2013-03-22 12:41:00,
2013-03-22 05:47:00,34.4,32.6,29.70,SE,139,0.0,0.0,93,0.00,,,0.00,Wunderground v.1.15,2013-03-22 12:47:00,
2013-03-22 05:53:00,34.3,32.8,29.70,SE,139,0.0,0.0,94,0.00,,,0.00,Wunderground v.1.15,2013-03-22 12:53:00,
2013-03-22 05:59:00,34.4,32.9,29.70,SE,139,0.0,0.0,94,0.00,,,0.00,Wunderground v.1.15,2013-03-22 12:59:00,
2013-03-22 06:05:00,34.9,33.6,29.71,SE,126,0.0,1.0,95,0.00,,,0.00,Wunderground v.1.15,2013-03-22 13:05:00,
2013-03-22 06:11:00,35.3,34.0,29.71,ESE,113,0.0,2.0,95,0.00,,,0.00,Wunderground v.1.15,2013-03-22 13:11:00,
2013-03-22 06:17:00,35.6,34.3,29.70,ESE,113,0.0,2.0,95,0.00,,,0.00,Wunderground v.1.15,2013-03-22 13:17:00,
2013-03-22 06:23:00,35.8,34.2,29.71,ESE,113,0.0,0.0,94,0.00,,,0.00,Wunderground v.1.15,2013-03-22 13:23:00,
2013-03-22 06:29:00,35.9,34.3,29.71,NNE,13,0.0,0.0,94,0.00,,,0.00,Wunderground v.1.15,2013-03-22 13:29:00,
2013-03-22 06:36:00,35.9,34.3,29.71,WNW,298,0.0,0.0,94,0.00,,,0.00,Wunderground v.1.15,2013-03-22 13:36:00,
2013-03-22 06:41:00,35.9,34.1,29.71,SW,221,1.0,1.0,93,0.00,,,0.00,Wunderground v.1.15,2013-03-22 13:41:00,
2013-03-22 06:47:00,36.5,34.7,29.71,West,278,1.0,4.0,93,0.00,,,0.00,Wunderground v.1.15,2013-03-22 13:47:00,
2013-03-22 06:53:00,36.8,34.4,29.71,West,278,1.0,1.0,91,0.00,,,0.00,Wunderground v.1.15,2013-03-22 13:53:00,
2013-03-22 06:59:00,36.5,34.1,29.72,West,278,0.0,1.0,91,0.00,,,0.00,Wunderground v.1.15,2013-03-22 13:59:00,
2013-03-22 07:05:00,36.3,33.6,29.72,West,278,0.0,2.0,90,0.00,,,0.00,Wunderground v.1.15,2013-03-22 14:05:00,
2013-03-22 07:11:00,35.9,33.0,29.71,West,278,0.0,0.0,89,0.00,,,0.00,Wunderground v.1.15,2013-03-22 14:11:00,
2013-03-22 07:17:00,35.6,33.0,29.71,West,278,0.0,0.0,90,0.00,,,0.00,Wunderground v.1.15,2013-03-22 14:17:00,
2013-03-22 07:23:00,35.6,33.0,29.72,West,278,0.0,1.0,90,0.00,,,0.00,Wunderground v.1.15,2013-03-22 14:23:00,
2013-03-22 07:29:00,35.8,33.2,29.72,SE,142,0.0,0.0,90,0.00,,,0.00,Wunderground v.1.15,2013-03-22 14:29:00,
2013-03-22 07:35:00,36.5,33.3,29.72,SE,143,0.0,2.0,88,0.00,,,0.00,Wunderground v.1.15,2013-03-22 14:35:00,
2013-03-22 07:41:00,36.6,32.8,29.72,South,180,1.0,1.0,86,0.00,,,0.00,Wunderground v.1.15,2013-03-22 14:41:00,
2013-03-22 07:47:00,36.9,32.2,29.72,WNW,300,1.0,6.0,83,0.00,,,0.00,Wunderground v.1.15,2013-03-22 14:47:00,
2013-03-22 07:53:00,39.2,31.6,29.73,East,87,2.0,2.0,74,0.00,,,0.00,Wunderground v.1.15,2013-03-22 14:53:00,
2013-03-22 07:59:00,39.9,31.3,29.72,SW,229,0.0,0.0,71,0.00,,,0.00,Wunderground v.1.15,2013-03-22 14:59:00,
2013-03-22 08:05:00,40.1,31.1,29.73,ESE,107,0.0,0.0,70,0.00,,,0.00,Wunderground v.1.15,2013-03-22 15:05:00,
2013-03-22 08:11:00,40.5,31.1,29.73,North,10,0.0,0.0,69,0.00,,,0.00,Wunderground v.1.15,2013-03-22 15:11:00,
2013-03-22 08:17:00,41.1,32.1,29.73,NNW,338,0.0,0.0,70,0.00,,,0.00,Wunderground v.1.15,2013-03-22 15:17:00,
2013-03-22 08:23:00,41.3,31.9,29.73,NW,309,0.0,0.0,69,0.00,,,0.00,Wunderground v.1.15,2013-03-22 15:23:00,
2013-03-22 08:29:00,41.9,31.0,29.73,SW,233,1.0,1.0,65,0.00,,,0.00,Wunderground v.1.15,2013-03-22 15:29:00,
2013-03-22 08:35:00,42.6,32.4,29.73,SW,234,1.0,4.0,67,0.00,,,0.00,Wunderground v.1.15,2013-03-22 15:35:00,
2013-03-22 08:41:00,43.1,32.9,29.74,SW,234,1.0,1.0,67,0.00,,,0.00,Wunderground v.1.15,2013-03-22 15:41:00,
2013-03-22 08:47:00,43.8,33.2,29.73,West,261,1.0,3.0,66,0.00,,,0.00,Wunderground v.1.15,2013-03-22 15:47:00,
2013-03-22 08:53:00,44.3,34.0,29.74,North,355,1.0,2.0,67,0.00,,,0.00,Wunderground v.1.15,2013-03-22 15:53:00,
2013-03-22 08:59:00,44.9,34.2,29.74,West,272,1.0,2.0,66,0.00,,,0.00,Wunderground v.1.15,2013-03-22 15:59:00,
2013-03-22 09:05:00,45.7,35.0,29.74,West,272,1.0,2.0,66,0.00,,,0.00,Wunderground v.1.15,2013-03-22 16:05:00,
2013-03-22 09:11:00,46.7,35.6,29.74,NNE,32,0.0,1.0,65,0.00,,,0.00,Wunderground v.1.15,2013-03-22 16:11:00,
2013-03-22 09:17:00,47.4,33.8,29.74,West,281,2.0,7.0,59,0.00,,,0.00,Wunderground v.1.15,2013-03-22 16:17:00,
2013-03-22 09:23:00,48.6,33.6,29.74,WNW,292,4.0,7.0,56,0.00,,,0.00,Wunderground v.1.15,2013-03-22 16:23:00,
2013-03-22 09:29:00,50.2,33.7,29.75,West,280,3.0,3.0,53,0.00,,,0.00,Wunderground v.1.15,2013-03-22 16:29:00,
2013-03-22 09:35:00,51.9,37.6,29.75,West,278,2.0,4.0,58,0.00,,,0.00,Wunderground v.1.15,2013-03-22 16:35:00,
2013-03-22 09:41:00,52.9,35.7,29.75,West,281,0.0,3.0,52,0.00,,,0.00,Wunderground v.1.15,2013-03-22 16:41:00,
2013-03-22 09:47:00,53.6,33.3,29.75,WNW,283,1.0,5.0,46,0.00,,,0.00,Wunderground v.1.15,2013-03-22 16:47:00,
2013-03-22 09:53:00,54.4,29.9,29.75,WNW,292,3.0,4.0,39,0.00,,,0.00,Wunderground v.1.15,2013-03-22 16:53:00,
2013-03-22 09:59:00,55.6,26.9,29.75,SW,234,4.0,6.0,33,0.00,,,0.00,Wunderground v.1.15,2013-03-22 16:59:00,
2013-03-22 10:05:00,56.3,26.0,29.75,West,263,4.0,6.0,31,0.00,,,0.00,Wunderground v.1.15,2013-03-22 17:05:00,
2013-03-22 10:11:00,57.2,19.7,29.75,WNW,289,4.0,6.0,23,0.00,,,0.00,Wunderground v.1.15,2013-03-22 17:11:00,
2013-03-22 10:17:00,57.8,23.1,29.75,WNW,296,3.0,6.0,26,0.00,,,0.00,Wunderground v.1.15,2013-03-22 17:17:00,
2013-03-22 10:23:00,58.1,20.4,29.75,NNW,342,1.0,3.0,23,0.00,,,0.00,Wunderground v.1.15,2013-03-22 17:23:00,
2013-03-22 10:29:00,59.3,22.5,29.76,WNW,292,1.0,3.0,24,0.00,,,0.00,Wunderground v.1.15,2013-03-22 17:29:00,
2013-03-22 10:35:00,59.3,17.0,29.76,NE,38,2.0,4.0,19,0.00,,,0.00,Wunderground v.1.15,2013-03-22 17:35:00,
2013-03-22 10:41:00,60.1,20.0,29.76,WNW,302,2.0,2.0,21,0.00,,,0.00,Wunderground v.1.15,2013-03-22 17:41:00,
2013-03-22 10:47:00,59.9,19.8,29.76,WNW,297,1.0,2.0,21,0.00,,,0.00,Wunderground v.1.15,2013-03-22 17:47:00,
2013-03-22 10:53:00,60.7,23.7,29.76,ENE,61,1.0,1.0,24,0.00,,,0.00,Wunderground v.1.15,2013-03-22 17:53:00,
2013-03-22 10:59:00,60.9,20.7,29.76,North,5,1.0,1.0,21,0.00,,,0.00,Wunderground v.1.15,2013-03-22 17:59:00,
2013-03-22 11:05:00,61.5,21.2,29.75,NW,323,1.0,1.0,21,0.00,,,0.00,Wunderground v.1.15,2013-03-22 18:05:00,
2013-03-22 11:11:00,62.3,22.9,29.75,SW,235,0.0,2.0,22,0.00,,,0.00,Wunderground v.1.15,2013-03-22 18:11:00,
2013-03-22 11:17:00,62.0,22.7,29.76,NNE,19,1.0,2.0,22,0.00,,,0.00,Wunderground v.1.15,2013-03-22 18:17:00,
2013-03-22 11:23:00,61.8,20.3,29.76,WSW,254,1.0,3.0,20,0.00,,,0.00,Wunderground v.1.15,2013-03-22 18:23:00,
2013-03-22 11:29:00,61.6,21.2,29.76,WNW,285,2.0,5.0,21,0.00,,,0.00,Wunderground v.1.15,2013-03-22 18:29:00,
2013-03-22 11:35:00,61.8,22.5,29.75,East,92,2.0,5.0,22,0.00,,,0.00,Wunderground v.1.15,2013-03-22 18:35:00,
2013-03-22 11:41:00,62.9,21.2,29.76,NNE,25,1.0,1.0,20,0.00,,,0.00,Wunderground v.1.15,2013-03-22 18:41:00,
2013-03-22 11:47:00,63.4,19.1,29.76,East,92,1.0,4.0,18,0.00,,,0.00,Wunderground v.1.15,2013-03-22 18:47:00,
2013-03-22 11:53:00,64.0,23.2,29.75,East,79,1.0,2.0,21,0.00,,,0.00,Wunderground v.1.15,2013-03-22 18:53:00,
2013-03-22 11:59:00,64.5,21.3,29.75,ENE,74,1.0,1.0,19,0.00,,,0.00,Wunderground v.1.15,2013-03-22 18:59:00,
2013-03-22 12:05:00,64.5,24.8,29.75,ESE,116,1.0,2.0,22,0.00,,,0.00,Wunderground v.1.15,2013-03-22 19:05:00,
2013-03-22 12:12:00,64.3,19.8,29.75,North,5,1.0,2.0,18,0.00,,,0.00,Wunderground v.1.15,2013-03-22 19:12:00,
2013-03-22 12:17:00,64.2,24.5,29.75,SE,136,1.0,2.0,22,0.00,,,0.00,Wunderground v.1.15,2013-03-22 19:17:00,
2013-03-22 12:23:00,64.3,23.5,29.75,SW,236,1.0,2.0,21,0.00,,,0.00,Wunderground v.1.15,2013-03-22 19:23:00,
2013-03-22 12:29:00,65.2,28.5,29.74,WNW,287,1.0,5.0,25,0.00,,,0.00,Wunderground v.1.15,2013-03-22 19:29:00,
2013-03-22 12:35:00,63.9,23.2,29.74,WSW,250,4.0,7.0,21,0.00,,,0.00,Wunderground v.1.15,2013-03-22 19:35:00,
2013-03-22 12:42:00,63.1,20.1,29.74,SSE,165,5.0,5.0,19,0.00,,,0.00,Wunderground v.1.15,2013-03-22 19:42:00,
2013-03-22 12:47:00,63.2,27.7,29.74,NW,316,3.0,5.0,26,0.00,,,0.00,Wunderground v.1.15,2013-03-22 19:47:00,
2013-03-22 12:53:00,64.0,24.4,29.74,ENE,57,3.0,7.0,22,0.00,,,0.00,Wunderground v.1.15,2013-03-22 19:53:00,
2013-03-22 12:59:00,64.7,23.8,29.74,SSE,148,2.0,2.0,21,0.00,,,0.00,Wunderground v.1.15,2013-03-22 19:59:00,
2013-03-22 13:05:00,64.7,29.0,29.74,West,277,2.0,5.0,26,0.00,,,0.00,Wunderground v.1.15,2013-03-22 20:05:00,
2013-03-22 13:11:00,64.5,27.9,29.74,WNW,288,4.0,5.0,25,0.00,,,0.00,Wunderground v.1.15,2013-03-22 20:11:00,
2013-03-22 13:17:00,64.7,30.8,29.74,WNW,299,4.0,5.0,28,0.00,,,0.00,Wunderground v.1.15,2013-03-22 20:17:00,
2013-03-22 13:23:00,65.2,29.4,29.73,WNW,299,3.0,4.0,26,0.00,,,0.00,Wunderground v.1.15,2013-03-22 20:23:00,
2013-03-22 13:29:00,65.3,26.5,29.73,WNW,298,2.0,3.0,23,0.00,,,0.00,Wunderground v.1.15,2013-03-22 20:29:00,
2013-03-22 13:35:00,65.0,27.3,29.73,WSW,255,2.0,5.0,24,0.00,,,0.00,Wunderground v.1.15,2013-03-22 20:35:00,
2013-03-22 13:41:00,65.0,30.2,29.73,West,275,2.0,2.0,27,0.00,,,0.00,Wunderground v.1.15,2013-03-22 20:41:00,
2013-03-22 13:47:00,65.5,28.7,29.73,SSW,202,1.0,2.0,25,0.00,,,0.00,Wunderground v.1.15,2013-03-22 20:47:00,
2013-03-22 13:53:00,65.8,29.9,29.73,West,268,2.0,9.0,26,0.00,,,0.00,Wunderground v.1.15,2013-03-22 20:53:00,
2013-03-22 13:59:00,65.6,28.8,29.72,WNW,300,3.0,4.0,25,0.00,,,0.00,Wunderground v.1.15,2013-03-22 20:59:00,
2013-03-22 14:05:00,66.1,27.2,29.72,West,268,2.0,4.0,23,0.00,,,0.00,Wunderground v.1.15,2013-03-22 21:05:00,
2013-03-22 14:11:00,66.0,28.1,29.72,WNW,292,2.0,2.0,24,0.00,,,0.00,Wunderground v.1.15,2013-03-22 21:11:00,
2013-03-22 14:17:00,66.3,31.3,29.72,West,275,2.0,4.0,27,0.00,,,0.00,Wunderground v.1.15,2013-03-22 21:17:00,
2013-03-22 14:23:00,66.1,29.2,29.72,West,271,3.0,6.0,25,0.00,,,0.00,Wunderground v.1.15,2013-03-22 21:23:00,
2013-03-22 14:29:00,66.1,27.2,29.71,WNW,282,2.0,6.0,23,0.00,,,0.00,Wunderground v.1.15,2013-03-22 21:29:00,
2013-03-22 14:35:00,66.0,28.1,29.70,West,272,2.0,6.0,24,0.00,,,0.00,Wunderground v.1.15,2013-03-22 21:35:00,
2013-03-22 14:43:00,66.6,29.6,29.70,WSW,254,2.0,4.0,25,0.00,,,0.00,Wunderground v.1.15,2013-03-22 21:43:00,
2013-03-22 14:49:00,67.1,31.0,29.70,West,273,2.0,4.0,26,0.00,,,0.00,Wunderground v.1.15,2013-03-22 21:49:00,
2013-03-22 14:55:00,66.6,29.6,29.70,West,280,3.0,5.0,25,0.00,,,0.00,Wunderground v.1.15,2013-03-22 21:55:00,
2013-03-22 15:01:00,66.6,29.6,29.69,WNW,294,3.0,7.0,25,0.00,,,0.00,Wunderground v.1.15,2013-03-22 22:01:00,
2013-03-22 15:07:00,66.4,28.5,29.69,WNW,283,3.0,7.0,24,0.00,,,0.00,Wunderground v.1.15,2013-03-22 22:07:00,
2013-03-22 15:13:00,66.4,27.4,29.69,West,268,4.0,10.0,23,0.00,,,0.00,Wunderground v.1.15,2013-03-22 22:13:00,
2013-03-22 15:19:00,66.3,27.4,29.69,West,279,5.0,5.0,23,0.00,,,0.00,Wunderground v.1.15,2013-03-22 22:19:00,
2013-03-22 15:25:00,66.6,28.6,29.69,SW,220,5.0,9.0,24,0.00,,,0.00,Wunderground v.1.15,2013-03-22 22:25:00,
2013-03-22 15:31:00,66.8,26.7,29.69,WNW,294,3.0,4.0,22,0.00,,,0.00,Wunderground v.1.15,2013-03-22 22:31:00,
2013-03-22 15:37:00,67.3,28.2,29.69,WNW,296,3.0,6.0,23,0.00,,,0.00,Wunderground v.1.15,2013-03-22 22:37:00,
2013-03-22 15:43:00,67.9,32.7,29.69,West,281,3.0,5.0,27,0.00,,,0.00,Wunderground v.1.15,2013-03-22 22:43:00,
2013-03-22 15:49:00,67.4,33.1,29.69,NNW,329,5.0,6.0,28,0.00,,,0.00,Wunderground v.1.15,2013-03-22 22:49:00,
2013-03-22 15:55:00,66.6,35.0,29.69,WSW,246,6.0,10.0,31,0.00,,,0.00,Wunderground v.1.15,2013-03-22 22:55:00,
2013-03-22 16:01:00,66.3,34.7,29.68,WSW,242,5.0,11.0,31,0.00,,,0.00,Wunderground v.1.15,2013-03-22 23:01:00,
2013-03-22 16:07:00,66.6,36.6,29.68,WNW,298,3.0,11.0,33,0.00,,,0.00,Wunderground v.1.15,2013-03-22 23:07:00,
2013-03-22 16:13:00,66.3,34.7,29.68,SE,146,4.0,4.0,31,0.00,,,0.00,Wunderground v.1.15,2013-03-22 23:13:00,
2013-03-22 16:19:00,66.1,33.7,29.68,WSW,255,5.0,6.0,30,0.00,,,0.00,Wunderground v.1.15,2013-03-22 23:19:00,
2013-03-22 16:25:00,66.4,35.6,29.68,West,273,4.0,10.0,32,0.00,,,0.00,Wunderground v.1.15,2013-03-22 23:25:00,
2013-03-22 16:31:00,66.3,36.3,29.68,NE,42,5.0,5.0,33,0.00,,,0.00,Wunderground v.1.15,2013-03-22 23:31:00,
2013-03-22 16:37:00,66.4,34.8,29.67,SSW,200,4.0,5.0,31,0.00,,,0.00,Wunderground v.1.15,2013-03-22 23:37:00,
2013-03-22 16:43:00,66.3,35.5,29.67,West,277,4.0,6.0,32,0.00,,,0.00,Wunderground v.1.15,2013-03-22 23:43:00,
2013-03-22 16:49:00,65.6,36.5,29.68,NW,314,4.0,4.0,34,0.00,,,0.00,Wunderground v.1.15,2013-03-22 23:49:00,
2013-03-22 16:55:00,65.5,34.8,29.67,West,272,3.0,5.0,32,0.00,,,0.00,Wunderground v.1.15,2013-03-22 23:55:00,
2013-03-22 17:01:00,65.3,36.2,29.68,West,281,4.0,6.0,34,0.00,,,0.00,Wunderground v.1.15,2013-03-23 00:01:00,
2013-03-22 17:07:00,66.1,34.6,29.68,SW,223,3.0,6.0,31,0.00,,,0.00,Wunderground v.1.15,2013-03-23 00:07:00,
2013-03-22 17:13:00,66.0,37.5,29.68,West,267,3.0,4.0,35,0.00,,,0.00,Wunderground v.1.15,2013-03-23 00:13:00,
2013-03-22 17:19:00,66.0,32.8,29.68,WSW,256,4.0,6.0,29,0.00,,,0.00,Wunderground v.1.15,2013-03-23 00:19:00,
2013-03-22 17:25:00,65.8,35.1,29.67,WNW,286,4.0,7.0,32,0.00,,,0.00,Wunderground v.1.15,2013-03-23 00:25:00,
2013-03-22 17:31:00,64.8,37.2,29.68,WNW,296,4.0,4.0,36,0.00,,,0.00,Wunderground v.1.15,2013-03-23 00:31:00,
2013-03-22 17:38:00,64.5,36.2,29.68,NW,306,4.0,6.0,35,0.00,,,0.00,Wunderground v.1.15,2013-03-23 00:38:00,
2013-03-22 17:43:00,64.2,36.0,29.68,WNW,295,4.0,6.0,35,0.00,,,0.00,Wunderground v.1.15,2013-03-23 00:43:00,
2013-03-22 17:49:00,64.3,34.6,29.68,WSW,248,4.0,7.0,33,0.00,,,0.00,Wunderground v.1.15,2013-03-23 00:49:00,
2013-03-22 17:55:00,64.7,34.9,29.67,West,268,3.0,7.0,33,0.00,,,0.00,Wunderground v.1.15,2013-03-23 00:55:00,
2013-03-22 18:01:00,65.0,35.2,29.67,WNW,295,3.0,3.0,33,0.00,,,0.00,Wunderground v.1.15,2013-03-23 01:01:00,
2013-03-22 18:07:00,64.8,34.2,29.67,WSW,249,3.0,5.0,32,0.00,,,0.00,Wunderground v.1.15,2013-03-23 01:07:00,
2013-03-22 18:13:00,64.5,35.5,29.67,WSW,250,3.0,3.0,34,0.00,,,0.00,Wunderground v.1.15,2013-03-23 01:13:00,
2013-03-22 18:19:00,65.0,34.4,29.67,SW,217,1.0,1.0,32,0.00,,,0.00,Wunderground v.1.15,2013-03-23 01:19:00,
2013-03-22 18:25:00,65.2,36.1,29.68,South,189,0.0,1.0,34,0.00,,,0.00,Wunderground v.1.15,2013-03-23 01:25:00,
2013-03-22 18:32:00,66.0,37.5,29.68,South,189,0.0,0.0,35,0.00,,,0.00,Wunderground v.1.15,2013-03-23 01:32:00,
2013-03-22 18:37:00,66.1,35.4,29.69,WNW,291,0.0,3.0,32,0.00,,,0.00,Wunderground v.1.15,2013-03-23 01:37:00,
2013-03-22 18:43:00,65.0,36.7,29.69,WNW,292,1.0,1.0,35,0.00,,,0.00,Wunderground v.1.15,2013-03-23 01:43:00,
2013-03-22 18:49:00,64.3,37.5,29.69,WNW,292,0.0,0.0,37,0.00,,,0.00,Wunderground v.1.15,2013-03-23 01:49:00,
2013-03-22 18:55:00,63.2,40.9,29.68,WNW,292,0.0,0.0,44,0.00,,,0.00,Wunderground v.1.15,2013-03-23 01:55:00,
2013-03-22 19:01:00,62.3,41.2,29.68,WNW,292,0.0,0.0,46,0.00,,,0.00,Wunderground v.1.15,2013-03-23 02:01:00,
2013-03-22 19:07:00,61.6,42.2,29.68,WNW,292,0.0,0.0,49,0.00,,,0.00,Wunderground v.1.15,2013-03-23 02:07:00,
2013-03-22 19:13:00,60.4,41.1,29.68,WNW,292,0.0,0.0,49,0.00,,,0.00,Wunderground v.1.15,2013-03-23 02:13:00,
2013-03-22 19:19:00,59.2,41.1,29.68,WNW,292,0.0,0.0,51,0.00,,,0.00,Wunderground v.1.15,2013-03-23 02:19:00,
2013-03-22 19:25:00,58.0,41.0,29.69,WNW,292,0.0,0.0,53,0.00,,,0.00,Wunderground v.1.15,2013-03-23 02:25:00,
2013-03-22 19:31:00,57.2,40.7,29.69,WNW,292,0.0,0.0,54,0.00,,,0.00,Wunderground v.1.15,2013-03-23 02:31:00,
2013-03-22 19:37:00,56.7,39.7,29.69,WNW,292,0.0,0.0,53,0.00,,,0.00,Wunderground v.1.15,2013-03-23 02:37:00,
2013-03-22 19:43:00,56.3,39.9,29.69,WNW,292,0.0,0.0,54,0.00,,,0.00,Wunderground v.1.15,2013-03-23 02:43:00,
2013-03-22 19:49:00,55.9,40.0,29.69,WNW,292,0.0,0.0,55,0.00,,,0.00,Wunderground v.1.15,2013-03-23 02:49:00,
2013-03-22 19:55:00,55.3,39.4,29.69,WNW,292,0.0,0.0,55,0.00,,,0.00,Wunderground v.1.15,2013-03-23 02:55:00,
2013-03-22 20:01:00,54.8,39.4,29.69,WNW,292,0.0,0.0,56,0.00,,,0.00,Wunderground v.1.15,2013-03-23 03:01:00,
2013-03-22 20:07:00,54.1,38.3,29.70,WNW,292,0.0,0.0,55,0.00,,,0.00,Wunderground v.1.15,2013-03-23 03:07:00,
2013-03-22 20:12:00,48.2,38.1,29.72,NW,321,0.0,0.0,68,0.00,,,0.00,Wunderground v.1.15,2013-03-23 03:12:00,
2013-03-22 20:13:00,53.5,39.1,29.70,WNW,292,0.0,0.0,58,0.00,,,0.00,Wunderground v.1.15,2013-03-23 03:13:00,
2013-03-22 20:14:00,48.0,38.7,29.72,NW,321,0.0,0.0,70,0.00,,,0.00,Wunderground v.1.15,2013-03-23 03:14:00,
2013-03-22 20:16:00,47.9,38.6,29.72,NW,321,0.0,0.0,70,0.00,,,0.00,Wunderground v.1.15,2013-03-23 03:16:00,
2013-03-22 20:18:00,47.7,38.4,29.72,NW,321,0.0,0.0,70,0.00,,,0.00,Wunderground v.1.15,2013-03-23 03:18:00,
2013-03-22 20:19:00,52.8,38.0,29.70,WNW,292,0.0,0.0,57,0.00,,,0.00,Wunderground v.1.15,2013-03-23 03:19:00,
2013-03-22 20:20:00,47.6,38.3,29.72,NW,321,0.0,0.0,70,0.00,,,0.00,Wunderground v.1.15,2013-03-23 03:20:00,
2013-03-22 20:22:00,47.6,38.3,29.72,NW,321,0.0,0.0,70,0.00,,,0.00,Wunderground v.1.15,2013-03-23 03:22:00,
2013-03-22 20:24:00,47.4,38.1,29.72,NW,321,0.0,0.0,70,0.00,,,0.00,Wunderground v.1.15,2013-03-23 03:24:00,
2013-03-22 20:25:00,52.2,38.3,29.70,WNW,292,0.0,0.0,59,0.00,,,0.00,Wunderground v.1.15,2013-03-23 03:25:00,
2013-03-22 20:26:00,47.3,38.4,29.72,NW,321,0.0,0.0,71,0.00,,,0.00,Wunderground v.1.15,2013-03-23 03:26:00,
2013-03-22 20:28:00,47.1,38.5,29.72,NW,321,0.0,0.0,72,0.00,,,0.00,Wunderground v.1.15,2013-03-23 03:28:00,
2013-03-22 20:30:00,47.1,39.2,29.72,NW,321,0.0,0.0,74,0.00,,,0.00,Wunderground v.1.15,2013-03-23 03:30:00,
2013-03-22 20:31:00,51.6,38.6,29.70,NW,321,0.0,0.0,61,0.00,,,0.00,Wunderground v.1.15,2013-03-23 03:31:00,
2013-03-22 20:32:00,47.0,39.5,29.71,NW,321,0.0,0.0,75,0.00,,,0.00,Wunderground v.1.15,2013-03-23 03:32:00,
2013-03-22 20:34:00,47.0,39.5,29.71,NW,321,0.0,0.0,75,0.00,,,0.00,Wunderground v.1.15,2013-03-23 03:34:00,
2013-03-22 20:36:00,47.0,39.5,29.72,NW,321,0.0,0.0,75,0.00,,,0.00,Wunderground v.1.15,2013-03-23 03:36:00,
2013-03-22 20:37:00,50.7,38.1,29.70,NW,321,0.0,0.0,62,0.00,,,0.00,Wunderground v.1.15,2013-03-23 03:37:00,
2013-03-22 20:38:00,47.0,39.5,29.72,NW,321,0.0,0.0,75,0.00,,,0.00,Wunderground v.1.15,2013-03-23 03:38:00,
2013-03-22 20:40:00,46.8,39.3,29.72,NW,321,0.0,0.0,75,0.00,,,0.00,Wunderground v.1.15,2013-03-23 03:40:00,
2013-03-22 20:42:00,46.7,39.2,29.72,NW,321,0.0,0.0,75,0.00,,,0.00,Wunderground v.1.15,2013-03-23 03:42:00,
2013-03-22 20:43:00,50.1,38.4,29.71,NW,321,0.0,0.0,64,0.00,,,0.00,Wunderground v.1.15,2013-03-23 03:43:00,
2013-03-22 20:44:00,46.5,38.7,29.72,NW,321,0.0,0.0,74,0.00,,,0.00,Wunderground v.1.15,2013-03-23 03:44:00,
2013-03-22 20:46:00,46.2,38.4,29.72,NW,321,0.0,0.0,74,0.00,,,0.00,Wunderground v.1.15,2013-03-23 03:46:00,
2013-03-22 20:48:00,46.1,38.3,29.72,NW,321,0.0,0.0,74,0.00,,,0.00,Wunderground v.1.15,2013-03-23 03:48:00,
2013-03-22 20:49:00,49.4,38.5,29.71,NW,321,0.0,0.0,66,0.00,,,0.00,Wunderground v.1.15,2013-03-23 03:49:00,
2013-03-22 20:50:00,45.8,38.0,29.72,NW,321,0.0,0.0,74,0.00,,,0.00,Wunderground v.1.15,2013-03-23 03:50:00,
2013-03-22 20:52:00,45.5,38.0,29.72,NW,321,0.0,0.0,75,0.00,,,0.00,Wunderground v.1.15,2013-03-23 03:52:00,
2013-03-22 20:54:00,45.2,38.1,29.72,NW,321,0.0,0.0,76,0.00,,,0.00,Wunderground v.1.15,2013-03-23 03:54:00,
2013-03-22 20:55:00,48.6,38.1,29.71,NW,321,0.0,0.0,67,0.00,,,0.00,Wunderground v.1.15,2013-03-23 03:55:00,
2013-03-22 20:56:00,44.9,37.8,29.72,NW,321,0.0,0.0,76,0.00,,,0.00,Wunderground v.1.15,2013-03-23 03:56:00,
2013-03-22 20:58:00,44.8,38.0,29.72,NW,321,0.0,0.0,77,0.00,,,0.00,Wunderground v.1.15,2013-03-23 03:58:00,
2013-03-22 21:00:00,44.6,37.8,29.72,NW,321,0.0,0.0,77,0.00,,,0.00,Wunderground v.1.15,2013-03-23 04:00:00,
2013-03-22 21:02:00,44.5,37.7,29.72,NW,321,0.0,0.0,77,0.00,,,0.00,Wunderground v.1.15,2013-03-23 04:02:00,
2013-03-22 21:04:00,44.5,37.7,29.72,NW,321,0.0,0.0,77,0.00,,,0.00,Wunderground v.1.15,2013-03-23 04:04:00,
2013-03-22 21:06:00,44.3,37.5,29.72,NW,321,0.0,0.0,77,0.00,,,0.00,Wunderground v.1.15,2013-03-23 04:06:00,
2013-03-22 21:08:00,44.2,37.4,29.72,NW,321,0.0,0.0,77,0.00,,,0.00,Wunderground v.1.15,2013-03-23 04:08:00,
2013-03-22 21:10:00,44.2,37.1,29.72,NW,321,0.0,0.0,76,0.00,,,0.00,Wunderground v.1.15,2013-03-23 04:10:00,
2013-03-22 21:12:00,44.2,37.1,29.72,NW,321,0.0,0.0,76,0.00,,,0.00,Wunderground v.1.15,2013-03-23 04:12:00,
2013-03-22 21:14:00,44.1,37.3,29.72,NW,321,0.0,0.0,77,0.00,,,0.00,Wunderground v.1.15,2013-03-23 04:14:00,
2013-03-22 21:16:00,43.9,37.5,29.72,NW,321,0.0,0.0,78,0.00,,,0.00,Wunderground v.1.15,2013-03-23 04:16:00,
2013-03-22 21:18:00,43.8,37.4,29.72,NW,321,0.0,0.0,78,0.00,,,0.00,Wunderground v.1.15,2013-03-23 04:18:00,
2013-03-22 21:20:00,43.6,37.5,29.72,NW,321,0.0,0.0,79,0.00,,,0.00,Wunderground v.1.15,2013-03-23 04:20:00,
2013-03-22 21:22:00,43.6,37.5,29.72,NW,321,0.0,0.0,79,0.00,,,0.00,Wunderground v.1.15,2013-03-23 04:22:00,
2013-03-22 21:24:00,43.5,37.4,29.72,NW,314,0.0,3.0,79,0.00,,,0.00,Wunderground v.1.15,2013-03-23 04:24:00,
2013-03-22 21:26:00,43.2,37.4,29.72,WNW,287,0.0,3.0,80,0.00,,,0.00,Wunderground v.1.15,2013-03-23 04:26:00,
2013-03-22 21:28:00,43.1,37.7,29.72,WNW,287,1.0,3.0,81,0.00,,,0.00,Wunderground v.1.15,2013-03-23 04:28:00,
2013-03-22 21:30:00,42.8,37.4,29.72,WNW,287,1.0,1.0,81,0.00,,,0.00,Wunderground v.1.15,2013-03-23 04:30:00,
2013-03-22 21:32:00,42.6,36.9,29.72,WNW,287,1.0,1.0,80,0.00,,,0.00,Wunderground v.1.15,2013-03-23 04:32:00,
2013-03-22 21:34:00,42.5,36.8,29.72,WNW,287,1.0,1.0,80,0.00,,,0.00,Wunderground v.1.15,2013-03-23 04:34:00,
2013-03-22 21:36:00,42.5,36.8,29.72,WNW,287,0.0,1.0,80,0.00,,,0.00,Wunderground v.1.15,2013-03-23 04:36:00,
2013-03-22 21:38:00,42.3,36.6,29.72,WNW,287,0.0,1.0,80,0.00,,,0.00,Wunderground v.1.15,2013-03-23 04:38:00,
2013-03-22 21:40:00,42.2,36.8,29.72,WNW,287,0.0,0.0,81,0.00,,,0.00,Wunderground v.1.15,2013-03-23 04:40:00,
2013-03-22 21:44:00,42.2,36.8,29.72,WNW,287,0.0,0.0,81,0.00,,,0.00,Wunderground v.1.15,2013-03-23 04:44:00,
2013-03-22 21:46:00,42.1,36.7,29.72,WNW,287,0.0,0.0,81,0.00,,,0.00,Wunderground v.1.15,2013-03-23 04:46:00,
2013-03-22 21:48:00,42.1,36.4,29.72,WNW,287,0.0,3.0,80,0.00,,,0.00,Wunderground v.1.15,2013-03-23 04:48:00,
2013-03-22 21:50:00,41.9,36.5,29.72,WNW,287,1.0,2.0,81,0.00,,,0.00,Wunderground v.1.15,2013-03-23 04:50:00,
2013-03-22 21:52:00,41.9,36.5,29.73,WNW,287,1.0,2.0,81,0.00,,,0.00,Wunderground v.1.15,2013-03-23 04:52:00,
2013-03-22 21:54:00,41.8,36.4,29.73,WNW,287,1.0,2.0,81,0.00,,,0.00,Wunderground v.1.15,2013-03-23 04:54:00,
2013-03-22 21:56:00,41.8,36.4,29.73,WNW,288,1.0,2.0,81,0.00,,,0.00,Wunderground v.1.15,2013-03-23 04:56:00,
2013-03-22 21:58:00,41.8,36.7,29.73,WNW,287,1.0,2.0,82,0.00,,,0.00,Wunderground v.1.15,2013-03-23 04:58:00,
2013-03-22 22:00:00,41.8,36.7,29.73,WNW,287,1.0,1.0,82,0.00,,,0.00,Wunderground v.1.15,2013-03-23 05:00:00,
2013-03-22 22:02:00,41.6,36.5,29.73,WNW,287,0.0,1.0,82,0.00,,,0.00,Wunderground v.1.15,2013-03-23 05:02:00,
2013-03-22 22:04:00,41.6,36.2,29.73,WNW,287,0.0,1.0,81,0.00,,,0.00,Wunderground v.1.15,2013-03-23 05:04:00,
2013-03-22 22:06:00,41.5,36.1,29.73,WNW,287,0.0,1.0,81,0.00,,,0.00,Wunderground v.1.15,2013-03-23 05:06:00,
2013-03-22 22:08:00,41.5,36.1,29.73,WNW,287,0.0,1.0,81,0.00,,,0.00,Wunderground v.1.15,2013-03-23 05:08:00,
2013-03-22 22:10:00,41.3,35.9,29.73,WNW,287,0.0,0.0,81,0.00,,,0.00,Wunderground v.1.15,2013-03-23 05:10:00,
2013-03-22 22:12:00,41.2,35.8,29.73,WNW,287,0.0,0.0,81,0.00,,,0.00,Wunderground v.1.15,2013-03-23 05:12:00,
2013-03-22 22:14:00,41.2,36.1,29.73,WNW,287,0.0,0.0,82,0.00,,,0.00,Wunderground v.1.15,2013-03-23 05:14:00,
2013-03-22 22:16:00,41.2,36.1,29.73,WNW,287,0.0,0.0,82,0.00,,,0.00,Wunderground v.1.15,2013-03-23 05:16:00,
2013-03-22 22:18:00,41.2,36.1,29.74,WNW,287,0.0,0.0,82,0.00,,,0.00,Wunderground v.1.15,2013-03-23 05:18:00,
2013-03-22 22:20:00,41.2,36.1,29.74,WNW,287,0.0,0.0,82,0.00,,,0.00,Wunderground v.1.15,2013-03-23 05:20:00,
2013-03-22 22:22:00,41.3,36.5,29.73,WNW,287,0.0,2.0,83,0.00,,,0.00,Wunderground v.1.15,2013-03-23 05:22:00,
2013-03-22 22:24:00,41.3,36.2,29.73,WNW,287,0.0,2.0,82,0.00,,,0.00,Wunderground v.1.15,2013-03-23 05:24:00,
2013-03-22 22:26:00,41.3,36.2,29.73,WNW,287,0.0,2.0,82,0.00,,,0.00,Wunderground v.1.15,2013-03-23 05:26:00,
2013-03-22 22:28:00,41.2,36.1,29.73,WNW,287,0.0,2.0,82,0.00,,,0.00,Wunderground v.1.15,2013-03-23 05:28:00,
2013-03-22 22:30:00,41.2,36.1,29.73,WNW,288,0.0,0.0,82,0.00,,,0.00,Wunderground v.1.15,2013-03-23 05:30:00,
2013-03-22 22:32:00,41.1,36.0,29.73,WNW,287,0.0,0.0,82,0.00,,,0.00,Wunderground v.1.15,2013-03-23 05:32:00,
2013-03-22 22:34:00,41.1,36.0,29.73,WNW,287,0.0,0.0,82,0.00,,,0.00,Wunderground v.1.15,2013-03-23 05:34:00,
2013-03-22 22:36:00,40.9,35.8,29.73,WNW,287,0.0,0.0,82,0.00,,,0.00,Wunderground v.1.15,2013-03-23 05:36:00,
2013-03-22 22:38:00,40.8,36.0,29.73,WNW,287,0.0,0.0,83,0.00,,,0.00,Wunderground v.1.15,2013-03-23 05:38:00,
2013-03-22 22:40:00,40.6,35.8,29.73,South,173,0.0,2.0,83,0.00,,,0.00,Wunderground v.1.15,2013-03-23 05:40:00,
2013-03-22 22:42:00,40.6,36.1,29.73,South,171,0.0,2.0,84,0.00,,,0.00,Wunderground v.1.15,2013-03-23 05:42:00,
2013-03-22 22:44:00,40.5,36.0,29.73,South,171,0.0,2.0,84,0.00,,,0.00,Wunderground v.1.15,2013-03-23 05:44:00,
2013-03-22 22:46:00,40.5,36.0,29.73,South,171,0.0,2.0,84,0.00,,,0.00,Wunderground v.1.15,2013-03-23 05:46:00,
2013-03-22 22:48:00,40.5,36.0,29.73,South,171,0.0,2.0,84,0.00,,,0.00,Wunderground v.1.15,2013-03-23 05:48:00,
2013-03-22 22:50:00,40.3,35.8,29.73,South,171,0.0,0.0,84,0.00,,,0.00,Wunderground v.1.15,2013-03-23 05:50:00,
2013-03-22 22:52:00,40.3,35.8,29.73,South,171,0.0,0.0,84,0.00,,,0.00,Wunderground v.1.15,2013-03-23 05:52:00,
2013-03-22 23:00:00,40.1,35.7,29.73,South,180,0.0,0.0,84,0.00,,,0.00,Wunderground v.1.15,2013-03-23 06:00:00,
2013-03-22 23:02:00,39.8,35.4,29.74,South,180,0.0,0.0,84,0.00,,,0.00,Wunderground v.1.15,2013-03-23 06:02:00,
2013-03-22 23:06:00,39.5,35.1,29.74,South,180,0.0,0.0,84,0.00,,,0.00,Wunderground v.1.15,2013-03-23 06:06:00,
2013-03-22 23:16:00,38.9,35.1,29.74,South,180,1.0,2.0,86,0.00,,,0.00,Wunderground v.1.15,2013-03-23 06:16:00,
2013-03-22 23:43:00,40.2,36.1,29.73,South,171,0.0,0.0,85,0.00,,,0.00,Wunderground v.1.15,2013-03-23 06:43:00,
2013-03-22 23:53:00,39.6,35.2,29.74,South,180,0.0,0.0,84,0.00,,,0.00,Wunderground v.1.15,2013-03-23 06:53:00,
2013-03-22 23:59:00,39.2,35.1,29.74,South,180,0.0,0.0,85,0.00,,,0.00,Wunderground v.1.15,2013-03-23 06:59:00,